Time;durP1;ratioP1;P1;durP2;ratioP2;P2;SDS_P1;SDS_P2;PMS_P1;PMS_P2;Temp;Humidity;BMP_temperature;BMP_pressure;BME280_temperature;BME280_humidity;BME280_pressure;Samples;Min_cycle;Max_cycle;Signal;HPM_P1;HPM_P2
2021/07/17 00:01:08;;;;;;;;;;;24.90;62.90;;;;;;5125875;27;19978;-57
2021/07/17 00:03:38;;;;;;;;;;;24.90;62.90;;;;;;5123946;27;19930;-57
2021/07/17 00:06:05;;;;;;;;;;;24.90;63.00;;;;;;5132196;27;20418;-57
2021/07/17 00:08:32;;;;;;;;;;;24.90;63.00;;;;;;5133790;27;20429;-54
2021/07/17 00:11:00;;;;;;;;;;;24.90;63.00;;;;;;5131008;27;20367;-58
2021/07/17 00:13:27;;;;;;;;;;;24.90;63.10;;;;;;5133741;27;19971;-56
2021/07/17 00:15:56;;;;;;;;;;;24.90;63.20;;;;;;5133450;27;19930;-58
2021/07/17 00:18:23;;;;;;;;;;;24.90;63.10;;;;;;5132639;27;19963;-58
2021/07/17 00:20:50;;;;;;;;;;;24.90;63.20;;;;;;5132007;27;19932;-55
2021/07/17 00:23:17;;;;;;;;;;;24.90;63.20;;;;;;5131574;27;20010;-57
2021/07/17 00:25:47;;;;;;;;;;;24.90;63.30;;;;;;5132823;27;19924;-58
2021/07/17 00:28:14;;;;;;;;;;;24.80;63.40;;;;;;5132437;27;20281;-56
2021/07/17 00:30:41;;;;;;;;;;;24.80;63.40;;;;;;5132965;27;19923;-58
2021/07/17 00:33:08;;;;;;;;;;;24.80;63.50;;;;;;5114835;27;19998;-58
2021/07/17 00:35:35;;;;;;;;;;;24.80;63.50;;;;;;5127078;27;19947;-58
2021/07/17 00:38:02;;;;;;;;;;;24.80;63.60;;;;;;5129735;27;19962;-57
2021/07/17 00:40:29;;;;;;;;;;;24.80;63.70;;;;;;5112283;27;20404;-55
2021/07/17 00:42:56;;;;;;;;;;;24.80;63.60;;;;;;5119338;27;20010;-56
2021/07/17 00:45:23;;;;;;;;;;;24.80;63.60;;;;;;5115756;27;19924;-56
2021/07/17 00:47:50;;;;;;;;;;;24.80;63.50;;;;;;5127983;27;20068;-57
2021/07/17 00:50:18;;;;;;;;;;;24.80;63.50;;;;;;5122309;27;19924;-58
2021/07/17 00:52:46;;;;;;;;;;;24.80;63.60;;;;;;5123480;27;19923;-57
2021/07/17 00:55:13;;;;;;;;;;;24.80;63.50;;;;;;5122652;27;19924;-57
2021/07/17 00:57:41;;;;;;;;;;;24.80;63.60;;;;;;5122810;27;19923;-58
2021/07/17 01:00:09;;;;;;;;;;;24.80;63.60;;;;;;5132782;27;19958;-57
2021/07/17 01:02:39;;;;;;;;;;;24.80;63.60;;;;;;5132347;27;19971;-58
2021/07/17 01:05:07;;;;;;;;;;;24.70;63.50;;;;;;5130005;27;19923;-57
2021/07/17 01:07:34;;;;;;;;;;;24.70;63.60;;;;;;5131115;27;19924;-58
2021/07/17 01:10:03;;;;;;;;;;;24.70;63.70;;;;;;5132611;27;19938;-57
2021/07/17 01:12:30;;;;;;;;;;;24.70;63.80;;;;;;5131335;27;19924;-58
2021/07/17 01:14:58;;;;;;;;;;;24.70;63.70;;;;;;5115686;27;19923;-57
2021/07/17 01:17:25;;;;;;;;;;;24.70;63.70;;;;;;5132720;27;19927;-55
2021/07/17 01:19:52;;;;;;;;;;;24.70;63.70;;;;;;5130182;27;19993;-57
2021/07/17 01:22:19;;;;;;;;;;;24.60;63.60;;;;;;5112782;28;19970;-58
2021/07/17 01:24:47;;;;;;;;;;;24.70;63.70;;;;;;5132665;27;19923;-57
2021/07/17 01:27:18;;;;;;;;;;;24.60;63.60;;;;;;5114365;28;19949;-55
2021/07/17 01:29:45;;;;;;;;;;;24.70;63.70;;;;;;5132434;28;19968;-58
2021/07/17 01:32:16;;;;;;;;;;;24.70;63.60;;;;;;5131100;28;19923;-57
2021/07/17 01:34:43;;;;;;;;;;;24.70;63.60;;;;;;5130768;28;19928;-56
2021/07/17 01:37:11;;;;;;;;;;;24.70;63.50;;;;;;5114989;28;19924;-58
2021/07/17 01:39:38;;;;;;;;;;;24.60;63.50;;;;;;5132712;28;19981;-58
2021/07/17 01:42:07;;;;;;;;;;;24.70;63.50;;;;;;5133223;28;20003;-54
2021/07/17 01:44:41;;;;;;;;;;;24.70;63.50;;;;;;5114081;28;19963;-58
2021/07/17 01:47:08;;;;;;;;;;;24.70;63.40;;;;;;5131993;28;19949;-58
2021/07/17 01:49:35;;;;;;;;;;;24.70;63.50;;;;;;5132172;28;20006;-55
2021/07/17 01:52:02;;;;;;;;;;;24.70;63.70;;;;;;5130168;28;19927;-58
2021/07/17 01:54:33;;;;;;;;;;;24.60;63.60;;;;;;5129466;28;19984;-58
2021/07/17 01:57:02;;;;;;;;;;;24.60;63.60;;;;;;5129577;28;19930;-58
2021/07/17 01:59:29;;;;;;;;;;;24.60;63.70;;;;;;5129641;28;19965;-57
2021/07/17 02:01:56;;;;;;;;;;;24.60;63.60;;;;;;5130861;28;19945;-58
2021/07/17 02:04:24;;;;;;;;;;;24.60;63.50;;;;;;5130884;28;19976;-58
2021/07/17 02:06:51;;;;;;;;;;;24.60;63.60;;;;;;5134329;27;19923;-57
2021/07/17 02:09:18;;;;;;;;;;;24.60;63.60;;;;;;5119065;27;19928;-57
2021/07/17 02:11:45;;;;;;;;;;;24.60;63.70;;;;;;5133459;27;19927;-58
2021/07/17 02:14:12;;;;;;;;;;;24.60;63.80;;;;;;5136039;27;19931;-58
2021/07/17 02:16:39;;;;;;;;;;;24.60;63.80;;;;;;5134689;27;19924;-57
2021/07/17 02:19:17;;;;;;;;;;;24.60;63.80;;;;;;5135168;27;19923;-57
2021/07/17 02:21:51;;;;;;;;;;;24.70;64.00;;;;;;5133388;27;19931;-58
2021/07/17 02:24:19;;;;;;;;;;;24.60;63.90;;;;;;5134460;27;20507;-56
2021/07/17 02:26:47;;;;;;;;;;;24.60;63.80;;;;;;5133403;27;19928;-58
2021/07/17 02:29:14;;;;;;;;;;;24.60;63.80;;;;;;5131981;27;19967;-56
2021/07/17 02:31:41;;;;;;;;;;;24.70;63.90;;;;;;5135377;27;19959;-58
2021/07/17 02:34:10;;;;;;;;;;;24.70;63.90;;;;;;5134454;27;19932;-58
2021/07/17 02:36:37;;;;;;;;;;;24.70;64.30;;;;;;5135135;27;19923;-58
2021/07/17 02:39:05;;;;;;;;;;;24.60;64.40;;;;;;5117172;27;20460;-58
2021/07/17 02:41:32;;;;;;;;;;;24.60;64.40;;;;;;5134602;27;19972;-57
2021/07/17 02:44:00;;;;;;;;;;;24.60;64.40;;;;;;5135459;27;19970;-58
2021/07/17 02:46:27;;;;;;;;;;;24.60;64.60;;;;;;5135237;27;19923;-58
2021/07/17 02:48:54;;;;;;;;;;;24.70;64.70;;;;;;5133305;27;19923;-58
2021/07/17 02:51:21;;;;;;;;;;;24.70;64.80;;;;;;5121670;27;19976;-58
2021/07/17 02:53:48;;;;;;;;;;;24.70;65.00;;;;;;5119732;27;19972;-58
2021/07/17 02:56:15;;;;;;;;;;;24.70;65.10;;;;;;5112272;27;20379;-57
2021/07/17 02:58:42;;;;;;;;;;;24.70;65.30;;;;;;5134818;27;19972;-57
2021/07/17 03:01:09;;;;;;;;;;;24.70;65.60;;;;;;5135023;27;19980;-56
2021/07/17 03:03:36;;;;;;;;;;;24.60;65.40;;;;;;5132366;27;19923;-57
2021/07/17 03:06:03;;;;;;;;;;;24.60;65.90;;;;;;5134751;27;19923;-57
2021/07/17 03:08:31;;;;;;;;;;;24.60;66.10;;;;;;5132122;27;20400;-57
2021/07/17 03:10:58;;;;;;;;;;;24.60;66.20;;;;;;5132397;27;19923;-57
2021/07/17 03:13:25;;;;;;;;;;;24.50;66.50;;;;;;5115388;27;19971;-57
2021/07/17 03:15:52;;;;;;;;;;;24.50;66.60;;;;;;5132707;27;19930;-56
2021/07/17 03:18:19;;;;;;;;;;;24.50;66.60;;;;;;5132321;27;19923;-57
2021/07/17 03:20:46;;;;;;;;;;;24.50;67.00;;;;;;5133581;27;19932;-55
2021/07/17 03:23:13;;;;;;;;;;;24.50;67.10;;;;;;5133414;27;19923;-57
2021/07/17 03:25:41;;;;;;;;;;;24.40;67.00;;;;;;5134664;27;19967;-56
2021/07/17 03:28:08;;;;;;;;;;;24.40;67.00;;;;;;5117142;27;19973;-56
2021/07/17 03:30:35;;;;;;;;;;;24.40;67.30;;;;;;5116727;27;19988;-56
2021/07/17 03:33:03;;;;;;;;;;;24.40;67.40;;;;;;5134095;27;19972;-57
2021/07/17 03:35:30;;;;;;;;;;;24.40;67.40;;;;;;5131544;27;20314;-55
2021/07/17 03:37:57;;;;;;;;;;;24.40;67.50;;;;;;5134363;27;19924;-57
2021/07/17 03:40:24;;;;;;;;;;;24.40;67.60;;;;;;5133610;27;20362;-58
2021/07/17 03:42:52;;;;;;;;;;;24.40;67.40;;;;;;5134047;27;19930;-58
2021/07/17 03:45:19;;;;;;;;;;;24.40;67.50;;;;;;5133724;27;19927;-56
2021/07/17 03:47:46;;;;;;;;;;;24.40;67.60;;;;;;5131828;27;19930;-57
2021/07/17 03:50:13;;;;;;;;;;;24.40;67.80;;;;;;5134029;27;19931;-56
2021/07/17 03:52:40;;;;;;;;;;;24.40;67.80;;;;;;5132814;27;20055;-57
2021/07/17 03:55:08;;;;;;;;;;;24.30;67.50;;;;;;5132292;27;19972;-57
2021/07/17 03:57:35;;;;;;;;;;;24.40;67.90;;;;;;5132461;27;20300;-54
2021/07/17 04:00:03;;;;;;;;;;;24.40;67.80;;;;;;5132761;27;19923;-54
2021/07/17 04:02:39;;;;;;;;;;;24.40;67.50;;;;;;5131497;27;19976;-54
2021/07/17 04:05:08;;;;;;;;;;;24.40;67.50;;;;;;5131174;27;19931;-54
2021/07/17 04:07:35;;;;;;;;;;;24.40;67.50;;;;;;5130998;27;19923;-54
2021/07/17 04:10:05;;;;;;;;;;;24.40;67.40;;;;;;5132526;27;19992;-56
2021/07/17 04:12:32;;;;;;;;;;;24.40;67.40;;;;;;5130373;27;20431;-57
2021/07/17 04:15:00;;;;;;;;;;;24.50;67.60;;;;;;5126443;27;19928;-57
2021/07/17 04:17:27;;;;;;;;;;;24.50;67.50;;;;;;5115516;27;20014;-57
2021/07/17 04:19:54;;;;;;;;;;;24.50;67.40;;;;;;5116599;27;19935;-57
2021/07/17 04:22:21;;;;;;;;;;;24.50;67.60;;;;;;5117086;27;19931;-56
2021/07/17 04:24:49;;;;;;;;;;;24.50;67.30;;;;;;5131582;27;19988;-56
2021/07/17 04:27:16;;;;;;;;;;;24.50;67.20;;;;;;5116031;27;20280;-57
2021/07/17 04:29:43;;;;;;;;;;;24.60;67.20;;;;;;5130969;27;19936;-57
2021/07/17 04:32:10;;;;;;;;;;;24.60;67.40;;;;;;5115305;27;19924;-56
2021/07/17 04:34:37;;;;;;;;;;;24.60;67.40;;;;;;5132040;27;19924;-55
2021/07/17 04:37:05;;;;;;;;;;;24.60;67.40;;;;;;5116294;27;19970;-57
2021/07/17 04:39:32;;;;;;;;;;;24.60;67.40;;;;;;5132121;27;19924;-56
2021/07/17 04:41:59;;;;;;;;;;;24.60;67.40;;;;;;5133008;27;19963;-57
2021/07/17 04:44:27;;;;;;;;;;;24.50;67.20;;;;;;5131804;27;20022;-57
2021/07/17 04:46:54;;;;;;;;;;;24.60;67.20;;;;;;5133264;27;19972;-56
2021/07/17 04:49:21;;;;;;;;;;;24.60;67.10;;;;;;5131375;27;19976;-56
2021/07/17 04:51:49;;;;;;;;;;;24.60;67.10;;;;;;5132879;27;20379;-54
2021/07/17 04:54:16;;;;;;;;;;;24.60;67.20;;;;;;5133760;27;19968;-57
2021/07/17 04:56:44;;;;;;;;;;;24.60;67.40;;;;;;5131323;27;19923;-57
2021/07/17 04:59:11;;;;;;;;;;;24.60;67.40;;;;;;5132996;27;19924;-56
2021/07/17 05:01:38;;;;;;;;;;;24.60;67.50;;;;;;5132868;27;19923;-57
2021/07/17 05:04:05;;;;;;;;;;;24.60;67.40;;;;;;5115979;27;19924;-57
2021/07/17 05:06:32;;;;;;;;;;;24.60;67.50;;;;;;5132657;27;20002;-57
2021/07/17 05:09:00;;;;;;;;;;;24.60;67.60;;;;;;5132805;27;19932;-56
2021/07/17 05:11:26;;;;;;;;;;;24.60;67.50;;;;;;5125607;27;19931;-57
2021/07/17 05:13:54;;;;;;;;;;;24.60;68.50;;;;;;5119861;27;19924;-57
2021/07/17 05:16:21;;;;;;;;;;;24.60;67.90;;;;;;5117545;27;19924;-53
2021/07/17 05:18:48;;;;;;;;;;;24.60;67.90;;;;;;5133432;27;19924;-57
2021/07/17 05:21:16;;;;;;;;;;;24.60;67.80;;;;;;5132749;27;19924;-57
2021/07/17 05:23:47;;;;;;;;;;;24.60;67.80;;;;;;5132256;27;19924;-55
2021/07/17 05:26:14;;;;;;;;;;;24.60;68.00;;;;;;5130114;27;19923;-55
2021/07/17 05:28:41;;;;;;;;;;;24.60;68.20;;;;;;5133727;28;20346;-58
2021/07/17 05:31:08;;;;;;;;;;;24.50;68.10;;;;;;5115143;28;19923;-58
2021/07/17 05:33:35;;;;;;;;;;;24.50;68.40;;;;;;5132421;28;19958;-57
2021/07/17 05:36:03;;;;;;;;;;;24.50;68.50;;;;;;5124759;28;19930;-57
2021/07/17 05:38:30;;;;;;;;;;;24.50;68.60;;;;;;5131541;28;20299;-57
2021/07/17 05:40:57;;;;;;;;;;;24.50;68.70;;;;;;5130815;27;19924;-57
2021/07/17 05:43:23;;;;;;;;;;;24.40;68.70;;;;;;5136447;27;19923;-57
2021/07/17 05:45:53;;;;;;;;;;;24.40;68.80;;;;;;5136044;27;19976;-58
2021/07/17 05:48:21;;;;;;;;;;;24.40;68.90;;;;;;5136513;27;19992;-56
2021/07/17 05:50:48;;;;;;;;;;;24.40;68.80;;;;;;5135986;27;20382;-57
2021/07/17 05:53:15;;;;;;;;;;;24.40;68.70;;;;;;5137549;27;19924;-58
2021/07/17 05:55:43;;;;;;;;;;;24.40;68.50;;;;;;5135793;27;19923;-57
2021/07/17 05:58:10;;;;;;;;;;;24.40;68.50;;;;;;5134988;27;19943;-55
2021/07/17 06:00:37;;;;;;;;;;;24.50;68.50;;;;;;5136273;27;19949;-57
2021/07/17 06:03:04;;;;;;;;;;;24.50;68.40;;;;;;5134874;27;20006;-57
2021/07/17 06:05:31;;;;;;;;;;;24.60;68.50;;;;;;5133389;27;19931;-56
2021/07/17 06:07:58;;;;;;;;;;;24.60;68.30;;;;;;5118910;27;19923;-57
2021/07/17 06:10:26;;;;;;;;;;;24.60;68.30;;;;;;5134392;27;19931;-58
2021/07/17 06:12:53;;;;;;;;;;;24.60;68.30;;;;;;5134843;27;20371;-58
2021/07/17 06:15:20;;;;;;;;;;;24.60;68.20;;;;;;5134471;27;19928;-58
2021/07/17 06:17:52;;;;;;;;;;;24.60;67.90;;;;;;5117547;27;19988;-58
2021/07/17 06:20:21;;;;;;;;;;;24.60;68.00;;;;;;5137234;27;19997;-57
2021/07/17 06:22:48;;;;;;;;;;;24.60;68.20;;;;;;5134684;27;19973;-58
2021/07/17 06:25:15;;;;;;;;;;;24.60;68.10;;;;;;5135707;27;19923;-58
2021/07/17 06:27:42;;;;;;;;;;;24.70;68.20;;;;;;5118984;27;20075;-58
2021/07/17 06:30:10;;;;;;;;;;;24.70;68.30;;;;;;5116568;28;19924;-58
2021/07/17 06:32:37;;;;;;;;;;;24.70;68.00;;;;;;5135273;27;19930;-58
2021/07/17 06:35:04;;;;;;;;;;;24.70;67.90;;;;;;5136642;27;20362;-58
2021/07/17 06:37:32;;;;;;;;;;;24.70;67.80;;;;;;5134877;27;20260;-57
2021/07/17 06:39:59;;;;;;;;;;;24.80;68.10;;;;;;5134261;27;19924;-58
2021/07/17 06:42:26;;;;;;;;;;;24.70;67.90;;;;;;5133869;27;19923;-58
2021/07/17 06:44:53;;;;;;;;;;;24.70;68.20;;;;;;5135467;27;19930;-57
2021/07/17 06:47:21;;;;;;;;;;;24.70;68.30;;;;;;5135285;27;19927;-58
2021/07/17 06:49:48;;;;;;;;;;;24.60;68.20;;;;;;5133945;27;19923;-57
2021/07/17 06:52:15;;;;;;;;;;;24.70;68.30;;;;;;5133713;27;19984;-57
2021/07/17 06:54:42;;;;;;;;;;;24.60;68.50;;;;;;5132615;27;19931;-58
2021/07/17 06:57:09;;;;;;;;;;;24.60;68.40;;;;;;5127011;27;19947;-58
2021/07/17 06:59:36;;;;;;;;;;;24.70;68.30;;;;;;5125516;27;19927;-58
2021/07/17 07:02:04;;;;;;;;;;;24.70;68.30;;;;;;5110767;27;19924;-58
2021/07/17 07:04:32;;;;;;;;;;;24.70;68.30;;;;;;5100104;28;19924;-58
2021/07/17 07:06:59;;;;;;;;;;;24.70;68.30;;;;;;5129010;27;19923;-58
2021/07/17 07:09:26;;;;;;;;;;;24.80;68.40;;;;;;5133291;27;19924;-57
2021/07/17 07:11:53;;;;;;;;;;;24.80;68.20;;;;;;5133498;27;19927;-57
2021/07/17 07:14:22;;;;;;;;;;;24.70;68.10;;;;;;5134605;27;20398;-57
2021/07/17 07:16:49;;;;;;;;;;;24.80;68.30;;;;;;5132380;27;20321;-58
2021/07/17 07:19:16;;;;;;;;;;;24.80;68.50;;;;;;5133404;27;19924;-58
2021/07/17 07:21:43;;;;;;;;;;;24.80;68.30;;;;;;5119164;27;19931;-58
2021/07/17 07:24:10;;;;;;;;;;;24.80;68.50;;;;;;5132954;27;19996;-56
2021/07/17 07:26:37;;;;;;;;;;;24.80;68.50;;;;;;5135206;27;19924;-57
2021/07/17 07:29:04;;;;;;;;;;;24.80;68.60;;;;;;5135266;27;19997;-58
2021/07/17 07:31:32;;;;;;;;;;;24.80;68.50;;;;;;5136016;27;19924;-57
2021/07/17 07:33:59;;;;;;;;;;;24.80;68.50;;;;;;5116810;27;20022;-57
2021/07/17 07:36:26;;;;;;;;;;;24.80;68.40;;;;;;5119496;27;19924;-58
2021/07/17 07:38:53;;;;;;;;;;;24.90;68.40;;;;;;5131062;27;19931;-57
2021/07/17 07:41:20;;;;;;;;;;;24.90;68.20;;;;;;5131628;27;20329;-58
2021/07/17 07:43:47;;;;;;;;;;;24.90;68.10;;;;;;5132539;27;19972;-59
2021/07/17 07:46:14;;;;;;;;;;;24.90;68.00;;;;;;5131550;27;19972;-57
2021/07/17 07:48:42;;;;;;;;;;;25.00;68.00;;;;;;5132907;27;20435;-57
2021/07/17 07:51:10;;;;;;;;;;;25.00;67.90;;;;;;5134093;27;19923;-56
2021/07/17 07:53:38;;;;;;;;;;;25.10;67.70;;;;;;5133870;27;20383;-56
2021/07/17 07:56:05;;;;;;;;;;;25.10;67.70;;;;;;5132420;27;20375;-56
2021/07/17 07:58:32;;;;;;;;;;;25.10;67.70;;;;;;5124502;27;19969;-56
2021/07/17 08:00:59;;;;;;;;;;;25.20;67.50;;;;;;5121032;27;19927;-57
2021/07/17 08:03:27;;;;;;;;;;;25.30;67.60;;;;;;5131663;27;19976;-56
2021/07/17 08:05:54;;;;;;;;;;;25.30;67.60;;;;;;5132282;27;19929;-56
2021/07/17 08:08:21;;;;;;;;;;;25.30;67.60;;;;;;5133537;27;20320;-57
2021/07/17 08:10:48;;;;;;;;;;;25.40;67.40;;;;;;5133573;27;20050;-57
2021/07/17 08:13:16;;;;;;;;;;;25.40;67.00;;;;;;5134533;27;19924;-57
2021/07/17 08:15:43;;;;;;;;;;;25.40;66.90;;;;;;5131890;27;19928;-55
2021/07/17 08:18:11;;;;;;;;;;;25.40;67.10;;;;;;5133888;27;20256;-56
2021/07/17 08:20:40;;;;;;;;;;;25.40;67.10;;;;;;5134739;27;19931;-56
2021/07/17 08:23:08;;;;;;;;;;;25.40;66.90;;;;;;5132725;27;20375;-57
2021/07/17 08:25:36;;;;;;;;;;;25.40;67.30;;;;;;5133108;27;20018;-55
2021/07/17 08:28:03;;;;;;;;;;;25.40;67.40;;;;;;5133611;27;20367;-57
2021/07/17 08:30:33;;;;;;;;;;;25.40;67.50;;;;;;5133043;27;20268;-57
2021/07/17 08:33:00;;;;;;;;;;;25.30;67.50;;;;;;5132557;27;19923;-56
2021/07/17 08:35:28;;;;;;;;;;;25.30;67.90;;;;;;5127711;27;19923;-57
2021/07/17 08:37:55;;;;;;;;;;;25.30;67.90;;;;;;5130007;27;20006;-57
2021/07/17 08:40:22;;;;;;;;;;;25.20;68.40;;;;;;5131791;27;19923;-57
2021/07/17 08:42:52;;;;;;;;;;;25.20;68.30;;;;;;5119761;27;20265;-57
2021/07/17 08:45:21;;;;;;;;;;;25.20;68.60;;;;;;5115282;27;19928;-57
2021/07/17 08:47:49;;;;;;;;;;;25.20;68.60;;;;;;5114812;28;19924;-57
2021/07/17 08:50:21;;;;;;;;;;;25.20;68.60;;;;;;5128261;27;19924;-56
2021/07/17 08:52:49;;;;;;;;;;;25.10;68.70;;;;;;5132627;27;19927;-58
2021/07/17 08:55:17;;;;;;;;;;;25.10;68.90;;;;;;5110880;28;19924;-57
2021/07/17 08:57:44;;;;;;;;;;;25.10;69.10;;;;;;5103937;28;19974;-57
2021/07/17 09:00:11;;;;;;;;;;;25.10;69.10;;;;;;5103368;28;19973;-56
2021/07/17 09:02:55;;;;;;;;;;;25.10;69.10;;;;;;5110974;28;19993;-55
2021/07/17 09:05:26;;;;;;;;;;;25.10;69.00;;;;;;5113514;28;19930;-55
2021/07/17 09:07:54;;;;;;;;;;;25.20;69.10;;;;;;5109642;28;19992;-57
2021/07/17 09:10:30;;;;;;;;;;;25.20;69.10;;;;;;5104035;28;19924;-57
2021/07/17 09:13:16;;;;;;;;;;;25.20;69.10;;;;;;5102972;28;19924;-57
2021/07/17 09:15:59;;;;;;;;;;;25.20;69.30;;;;;;5111054;28;19924;-57
2021/07/17 09:18:33;;;;;;;;;;;25.20;69.20;;;;;;5110991;28;19946;-56
2021/07/17 09:21:04;;;;;;;;;;;25.30;69.00;;;;;;5110714;28;19931;-56
2021/07/17 09:23:35;;;;;;;;;;;25.30;69.10;;;;;;5111113;28;20023;-55
2021/07/17 09:26:10;;;;;;;;;;;25.30;69.20;;;;;;5111650;28;19923;-57
2021/07/17 09:28:37;;;;;;;;;;;25.30;69.30;;;;;;5109013;28;19924;-57
2021/07/17 09:31:06;;;;;;;;;;;25.30;69.00;;;;;;5110555;28;19931;-57
2021/07/17 09:33:33;;;;;;;;;;;25.40;68.90;;;;;;5110308;28;19977;-58
2021/07/17 09:36:01;;;;;;;;;;;25.40;68.50;;;;;;5103094;28;19974;-57
2021/07/17 09:38:32;;;;;;;;;;;25.50;68.20;;;;;;5101052;28;19975;-57
2021/07/17 09:41:02;;;;;;;;;;;25.60;68.70;;;;;;5113229;28;19931;-57
2021/07/17 09:43:30;;;;;;;;;;;25.60;68.10;;;;;;5105742;28;19981;-57
2021/07/17 09:45:58;;;;;;;;;;;25.70;68.10;;;;;;5096355;28;19928;-57
2021/07/17 09:48:30;;;;;;;;;;;25.80;68.20;;;;;;5096187;28;20287;-57
2021/07/17 09:50:59;;;;;;;;;;;25.80;68.10;;;;;;5096826;28;19953;-57
2021/07/17 09:53:34;;;;;;;;;;;25.90;67.90;;;;;;5109799;28;19924;-55
2021/07/17 09:56:09;;;;;;;;;;;25.90;67.80;;;;;;5126198;28;19942;-57
2021/07/17 09:58:38;;;;;;;;;;;26.00;67.70;;;;;;5127438;28;20399;-58
2021/07/17 10:01:11;;;;;;;;;;;26.00;67.20;;;;;;5129827;28;19924;-58
2021/07/17 10:03:39;;;;;;;;;;;26.10;67.10;;;;;;5130814;28;19978;-57
2021/07/17 10:06:11;;;;;;;;;;;26.10;67.30;;;;;;5129422;28;19976;-55
2021/07/17 10:08:38;;;;;;;;;;;26.10;67.20;;;;;;5131504;28;19924;-54
2021/07/17 10:11:14;;;;;;;;;;;26.10;67.30;;;;;;5113569;28;19924;-57
2021/07/17 10:13:41;;;;;;;;;;;26.10;66.80;;;;;;5113889;28;20391;-53
2021/07/17 10:16:19;;;;;;;;;;;26.20;67.00;;;;;;5130665;28;19969;-56
2021/07/17 10:18:46;;;;;;;;;;;26.20;67.20;;;;;;5115672;28;19928;-56
2021/07/17 10:21:13;;;;;;;;;;;26.20;66.90;;;;;;5113627;28;19977;-57
2021/07/17 10:23:41;;;;;;;;;;;26.20;66.60;;;;;;5130902;28;19927;-55
2021/07/17 10:26:09;;;;;;;;;;;26.20;66.90;;;;;;5132210;27;19927;-57
2021/07/17 10:28:37;;;;;;;;;;;26.20;66.60;;;;;;5136337;27;19923;-55
2021/07/17 10:31:05;;;;;;;;;;;26.20;66.50;;;;;;5133034;27;19924;-54
2021/07/17 10:33:33;;;;;;;;;;;26.20;67.00;;;;;;5117880;27;19924;-54
2021/07/17 10:36:04;;;;;;;;;;;26.30;66.90;;;;;;5118008;27;19931;-56
2021/07/17 10:38:33;;;;;;;;;;;26.30;66.50;;;;;;5118371;27;19977;-57
2021/07/17 10:41:00;;;;;;;;;;;26.40;66.90;;;;;;5132616;27;19928;-54
2021/07/17 10:43:27;;;;;;;;;;;26.40;66.40;;;;;;5123227;27;19969;-55
2021/07/17 10:45:55;;;;;;;;;;;26.40;66.40;;;;;;5118332;27;19924;-56
2021/07/17 10:48:24;;;;;;;;;;;26.40;66.70;;;;;;5117355;27;19924;-54
2021/07/17 10:50:52;;;;;;;;;;;26.40;66.40;;;;;;5118693;27;19932;-54
2021/07/17 10:53:54;;;;;;;;;;;26.50;66.70;;;;;;5128086;27;20428;-56
2021/07/17 10:56:41;;;;;;;;;;;26.50;66.90;;;;;;5030149;28;19925;-57
2021/07/17 10:59:11;;;;;;;;;;;26.50;67.00;;;;;;5029282;28;19979;-57
2021/07/17 11:01:56;;;;;;;;;;;26.60;67.20;;;;;;5032834;28;20071;-56
2021/07/17 11:04:47;;;;;;;;;;;26.60;67.20;;;;;;5030772;28;20015;-56
2021/07/17 11:07:17;;;;;;;;;;;26.60;67.20;;;;;;5014196;28;19930;-56
2021/07/17 11:09:51;;;;;;;;;;;26.60;67.30;;;;;;5030783;28;19929;-58
2021/07/17 11:12:19;;;;;;;;;;;26.60;67.20;;;;;;5030298;28;19970;-57
2021/07/17 11:14:47;;;;;;;;;;;26.60;67.30;;;;;;5031266;28;20304;-57
2021/07/17 11:17:32;;;;;;;;;;;26.60;67.20;;;;;;5030237;28;19925;-58
2021/07/17 11:20:18;;;;;;;;;;;26.60;67.60;;;;;;5031506;28;20024;-58
2021/07/17 11:22:46;;;;;;;;;;;26.60;67.50;;;;;;5031949;28;19967;-57
2021/07/17 11:25:16;;;;;;;;;;;26.60;67.40;;;;;;5032568;28;19925;-55
2021/07/17 11:27:44;;;;;;;;;;;26.60;67.60;;;;;;5031642;28;19999;-55
2021/07/17 11:30:15;;;;;;;;;;;26.50;67.10;;;;;;5030469;28;19925;-57
2021/07/17 11:33:12;;;;;;;;;;;26.60;67.50;;;;;;5098569;28;19931;-57
2021/07/17 11:35:40;;;;;;;;;;;26.60;67.30;;;;;;5134383;27;19923;-56
2021/07/17 11:38:09;;;;;;;;;;;26.60;67.50;;;;;;5133734;27;19962;-57
2021/07/17 11:40:37;;;;;;;;;;;26.60;67.40;;;;;;5134497;27;19923;-57
2021/07/17 11:43:09;;;;;;;;;;;26.60;68.00;;;;;;5117362;27;20329;-56
2021/07/17 11:45:37;;;;;;;;;;;26.60;67.10;;;;;;5115792;27;20401;-57
2021/07/17 11:48:11;;;;;;;;;;;26.60;67.10;;;;;;5132869;27;19924;-56
2021/07/17 11:50:39;;;;;;;;;;;26.60;67.10;;;;;;5134557;27;19973;-57
2021/07/17 11:53:16;;;;;;;;;;;26.60;66.90;;;;;;5132583;27;19923;-57
2021/07/17 11:55:43;;;;;;;;;;;26.70;67.10;;;;;;5132361;27;19930;-57
2021/07/17 11:58:15;;;;;;;;;;;26.70;67.10;;;;;;5133151;27;19923;-57
2021/07/17 12:00:42;;;;;;;;;;;26.70;66.90;;;;;;5132499;27;19954;-57
2021/07/17 12:03:09;;;;;;;;;;;26.70;67.00;;;;;;5133367;27;19945;-57
2021/07/17 12:05:37;;;;;;;;;;;26.80;67.10;;;;;;5132286;27;19970;-57
2021/07/17 12:08:05;;;;;;;;;;;26.70;66.90;;;;;;5132853;27;19923;-57
2021/07/17 12:10:32;;;;;;;;;;;26.80;66.90;;;;;;5133931;27;19934;-57
2021/07/17 12:13:00;;;;;;;;;;;26.80;67.10;;;;;;5132070;27;19928;-57
2021/07/17 12:15:28;;;;;;;;;;;26.80;67.00;;;;;;5132492;27;19955;-58
2021/07/17 12:17:59;;;;;;;;;;;26.90;66.80;;;;;;5123285;27;19924;-57
2021/07/17 12:20:28;;;;;;;;;;;26.90;66.80;;;;;;5117945;27;19952;-57
2021/07/17 12:23:01;;;;;;;;;;;26.90;66.80;;;;;;5115500;27;19931;-56
2021/07/17 12:25:36;;;;;;;;;;;26.90;66.70;;;;;;5116510;27;19959;-57
2021/07/17 12:28:42;;;;;;;;;;;26.90;66.80;;;;;;5115369;27;19930;-57
2021/07/17 12:31:10;;;;;;;;;;;26.90;66.80;;;;;;5035121;28;19976;-57
2021/07/17 12:33:41;;;;;;;;;;;26.80;66.90;;;;;;5035947;28;19932;-57
2021/07/17 12:36:11;;;;;;;;;;;26.80;67.00;;;;;;5042759;28;20000;-57
2021/07/17 12:38:38;;;;;;;;;;;26.80;67.00;;;;;;5049844;28;20360;-57
2021/07/17 12:41:07;;;;;;;;;;;26.90;67.00;;;;;;5043206;28;20380;-57
2021/07/17 12:43:36;;;;;;;;;;;26.90;67.10;;;;;;5043527;28;19979;-57
2021/07/17 12:46:05;;;;;;;;;;;26.90;67.00;;;;;;5049854;28;19932;-57
2021/07/17 12:48:34;;;;;;;;;;;26.90;66.90;;;;;;5049792;28;19955;-56
2021/07/17 12:51:05;;;;;;;;;;;27.00;66.90;;;;;;5048333;28;19948;-57
2021/07/17 12:53:32;;;;;;;;;;;27.00;66.90;;;;;;5048521;28;19929;-57
2021/07/17 12:56:00;;;;;;;;;;;27.00;66.80;;;;;;5049384;28;19924;-57
2021/07/17 12:58:28;;;;;;;;;;;27.00;66.80;;;;;;5050832;28;19932;-56
2021/07/17 13:00:55;;;;;;;;;;;27.00;66.90;;;;;;5049613;28;19925;-57
2021/07/17 13:03:23;;;;;;;;;;;27.00;66.80;;;;;;5048389;28;19936;-57
2021/07/17 13:05:51;;;;;;;;;;;27.00;66.70;;;;;;5112656;27;20608;-57
2021/07/17 13:08:25;;;;;;;;;;;27.00;66.50;;;;;;5132245;27;19924;-57
2021/07/17 13:10:54;;;;;;;;;;;27.00;66.60;;;;;;5131141;27;19924;-57
2021/07/17 13:13:24;;;;;;;;;;;27.10;66.60;;;;;;5132907;27;19976;-57
2021/07/17 13:15:56;;;;;;;;;;;27.10;66.30;;;;;;5132953;27;19930;-57
2021/07/17 13:18:25;;;;;;;;;;;27.10;66.20;;;;;;5095321;28;19978;-58
2021/07/17 13:21:03;;;;;;;;;;;27.10;65.90;;;;;;5133918;27;19924;-58
2021/07/17 13:23:49;;;;;;;;;;;27.10;65.80;;;;;;5114562;28;20040;-58
2021/07/17 13:26:27;;;;;;;;;;;27.10;65.80;;;;;;5115327;28;20401;-56
2021/07/17 13:28:54;;;;;;;;;;;27.20;65.80;;;;;;5129617;27;19923;-58
2021/07/17 13:31:28;;;;;;;;;;;27.10;65.70;;;;;;5132079;28;19938;-58
2021/07/17 13:34:11;;;;;;;;;;;27.10;65.70;;;;;;5132354;28;19927;-58
2021/07/17 13:36:54;;;;;;;;;;;27.20;65.80;;;;;;5124761;28;19931;-57
2021/07/17 13:39:23;;;;;;;;;;;27.10;65.70;;;;;;5132164;28;19928;-57
2021/07/17 13:42:10;;;;;;;;;;;27.20;65.70;;;;;;5132571;28;19935;-58
2021/07/17 13:44:38;;;;;;;;;;;27.20;65.60;;;;;;5132380;28;19923;-56
2021/07/17 13:47:09;;;;;;;;;;;27.20;65.60;;;;;;5131473;28;19924;-58
2021/07/17 13:49:36;;;;;;;;;;;27.20;65.60;;;;;;5129914;28;19935;-58
2021/07/17 13:52:03;;;;;;;;;;;27.20;65.50;;;;;;5132471;28;19924;-58
2021/07/17 13:54:30;;;;;;;;;;;27.20;65.50;;;;;;5129728;28;20335;-55
2021/07/17 13:56:58;;;;;;;;;;;27.20;65.50;;;;;;5131560;28;19927;-57
2021/07/17 13:59:27;;;;;;;;;;;27.20;65.60;;;;;;5115113;28;20284;-58
2021/07/17 14:02:05;;;;;;;;;;;27.20;65.60;;;;;;5114771;27;19927;-55
2021/07/17 14:04:32;;;;;;;;;;;27.20;65.70;;;;;;5117158;27;19923;-57
2021/07/17 14:06:59;;;;;;;;;;;27.20;65.80;;;;;;5116907;27;19927;-58
2021/07/17 14:09:26;;;;;;;;;;;27.20;66.00;;;;;;5118853;27;19946;-58
2021/07/17 14:11:53;;;;;;;;;;;27.20;66.00;;;;;;5137017;27;19931;-58
2021/07/17 14:14:21;;;;;;;;;;;27.20;66.00;;;;;;5133508;27;19924;-58
2021/07/17 14:16:48;;;;;;;;;;;27.20;66.10;;;;;;5121134;27;19924;-58
2021/07/17 14:19:15;;;;;;;;;;;27.20;66.10;;;;;;5131588;27;20271;-57
2021/07/17 14:21:42;;;;;;;;;;;27.20;66.10;;;;;;5123042;27;19928;-58
2021/07/17 14:24:10;;;;;;;;;;;27.20;66.10;;;;;;5131677;27;20390;-58
2021/07/17 14:26:37;;;;;;;;;;;27.20;66.20;;;;;;5135417;27;19972;-58